Time;durP1;ratioP1;P1;durP2;ratioP2;P2;SDS_P1;SDS_P2;PMS_P1;PMS_P2;Temp;Humidity;BMP_temperature;BMP_pressure;BME280_temperature;BME280_humidity;BME280_pressure;Samples;Min_cycle;Max_cycle;Signal;HPM_P1;HPM_P2
2022/02/23 00:01:22;;;;;;;5.62;3.87;;;11.30;66.00;;;;;;1914878;75;21539;-47
2022/02/23 00:03:52;;;;;;;7.47;4.35;;;11.30;66.30;;;;;;1914991;75;21119;-46
2022/02/23 00:06:21;;;;;;;8.05;4.45;;;11.30;66.20;;;;;;1914761;75;21075;-46
2022/02/23 00:08:50;;;;;;;6.85;4.50;;;11.30;66.20;;;;;;1914783;75;21032;-48
2022/02/23 00:11:20;;;;;;;7.22;4.35;;;11.30;66.30;;;;;;1914748;75;21036;-47
2022/02/23 00:13:49;;;;;;;7.17;4.50;;;11.30;66.40;;;;;;1914801;75;21028;-48
2022/02/23 00:16:19;;;;;;;5.72;4.28;;;11.30;66.40;;;;;;1914770;75;21008;-47
2022/02/23 00:18:48;;;;;;;6.50;4.33;;;11.30;66.40;;;;;;1914810;75;21004;-47
2022/02/23 00:21:17;;;;;;;9.38;4.60;;;11.30;66.60;;;;;;1914871;75;21040;-46
2022/02/23 00:23:47;;;;;;;6.62;4.47;;;11.30;66.80;;;;;;1914799;75;21032;-47
2022/02/23 00:26:17;;;;;;;5.62;4.00;;;11.30;66.90;;;;;;1914795;75;21032;-47
2022/02/23 00:28:46;;;;;;;5.62;4.47;;;11.20;66.90;;;;;;1914716;75;21114;-47
2022/02/23 00:31:15;;;;;;;8.05;4.45;;;11.20;67.20;;;;;;1914788;75;21043;-47
2022/02/23 00:33:45;;;;;;;7.95;4.47;;;11.20;67.40;;;;;;1914851;75;21060;-47
2022/02/23 00:36:14;;;;;;;7.17;4.83;;;11.10;67.70;;;;;;1914732;75;21000;-47
2022/02/23 00:38:44;;;;;;;9.90;5.20;;;11.10;67.90;;;;;;1914888;75;21181;-49
2022/02/23 00:41:13;;;;;;;9.48;4.62;;;11.10;68.10;;;;;;1914738;75;21040;-47
2022/02/23 00:43:43;;;;;;;7.90;4.85;;;11.10;68.80;;;;;;1914791;75;21036;-47
2022/02/23 00:46:12;;;;;;;8.68;4.65;;;11.00;69.10;;;;;;1914818;75;21035;-47
2022/02/23 00:48:41;;;;;;;12.03;4.45;;;11.00;69.40;;;;;;1914741;75;21195;-47
2022/02/23 00:51:11;;;;;;;7.87;4.50;;;11.00;69.50;;;;;;1914867;75;21121;-48
2022/02/23 00:53:40;;;;;;;7.53;4.22;;;11.00;70.00;;;;;;1914766;75;21000;-47
2022/02/23 00:56:10;;;;;;;7.42;4.50;;;10.90;70.10;;;;;;1914738;75;21552;-47
2022/02/23 00:58:39;;;;;;;11.30;5.12;;;10.90;70.50;;;;;;1914788;75;21028;-47
2022/02/23 01:01:09;;;;;;;9.38;5.62;;;10.80;70.60;;;;;;1914833;75;21101;-47
2022/02/23 01:03:38;;;;;;;7.42;4.78;;;10.80;70.50;;;;;;1914963;75;21075;-47
2022/02/23 01:06:07;;;;;;;8.93;4.97;;;10.70;70.50;;;;;;1914940;75;21064;-46
2022/02/23 01:08:37;;;;;;;10.88;5.25;;;10.70;71.00;;;;;;1914921;75;21064;-46
2022/02/23 01:11:06;;;;;;;9.95;5.05;;;10.60;70.90;;;;;;1914970;75;21036;-47
2022/02/23 01:13:36;;;;;;;12.35;5.03;;;10.60;71.00;;;;;;1914794;75;21145;-47
2022/02/23 01:16:05;;;;;;;17.48;7.53;;;10.50;70.90;;;;;;1914815;75;21064;-48
2022/02/23 01:18:35;;;;;;;14.45;7.78;;;10.50;70.80;;;;;;1915111;75;21008;-46
2022/02/23 01:21:04;;;;;;;9.03;5.95;;;10.40;70.70;;;;;;1914832;75;21114;-47
2022/02/23 01:23:34;;;;;;;11.38;5.30;;;10.30;71.20;;;;;;1914883;75;21098;-47
2022/02/23 01:26:03;;;;;;;7.80;5.60;;;10.20;71.70;;;;;;1914829;75;21032;-47
2022/02/23 01:28:33;;;;;;;9.08;5.72;;;10.20;71.60;;;;;;1914859;75;21004;-46
2022/02/23 01:31:03;;;;;;;8.68;6.15;;;10.20;71.80;;;;;;1914802;75;21036;-47
2022/02/23 01:33:33;;;;;;;9.03;5.42;;;10.20;72.20;;;;;;1914938;75;21032;-48
2022/02/23 01:36:02;;;;;;;10.38;6.60;;;10.20;72.50;;;;;;1914926;75;21498;-47
2022/02/23 01:38:32;;;;;;;10.00;6.25;;;10.30;73.00;;;;;;1914953;75;21075;-46
2022/02/23 01:41:04;;;;;;;15.35;5.87;;;10.20;72.90;;;;;;1914973;75;21028;-47
2022/02/23 01:43:34;;;;;;;12.47;6.53;;;10.30;73.00;;;;;;1915070;75;21040;-46
2022/02/23 01:46:03;;;;;;;16.07;7.53;;;10.20;73.30;;;;;;1914945;75;21039;-46
2022/02/23 01:48:32;;;;;;;13.20;6.65;;;10.20;73.60;;;;;;1914969;75;21553;-46
2022/02/23 01:51:02;;;;;;;19.17;6.97;;;10.20;73.30;;;;;;1914929;75;21188;-46
2022/02/23 01:53:31;;;;;;;11.45;6.45;;;10.10;73.20;;;;;;1915041;75;21106;-47
2022/02/23 01:56:00;;;;;;;11.70;6.47;;;10.10;73.20;;;;;;1914938;75;21008;-47
2022/02/23 01:58:30;;;;;;;13.68;6.50;;;10.00;73.80;;;;;;1915073;75;21123;-47
2022/02/23 02:00:59;;;;;;;20.30;8.05;;;10.00;73.70;;;;;;1915039;75;21036;-46
2022/02/23 02:03:28;;;;;;;19.12;7.87;;;9.90;73.90;;;;;;1914973;75;21138;-46
2022/02/23 02:05:58;;;;;;;18.65;8.68;;;9.90;74.00;;;;;;1915027;75;21122;-47
2022/02/23 02:08:27;;;;;;;14.18;9.03;;;9.80;74.10;;;;;;1914981;75;21110;-46
2022/02/23 02:10:57;;;;;;;12.37;7.30;;;9.80;74.40;;;;;;1914987;75;21061;-47
2022/02/23 02:13:27;;;;;;;14.98;8.25;;;9.70;74.60;;;;;;1914784;75;21072;-47
2022/02/23 02:15:56;;;;;;;25.62;8.10;;;9.70;74.50;;;;;;1914794;75;21110;-48
2022/02/23 02:18:25;;;;;;;10.55;8.15;;;9.70;74.90;;;;;;1915007;75;21040;-47
2022/02/23 02:20:55;;;;;;;10.70;7.30;;;9.70;75.00;;;;;;1914914;75;21040;-46
2022/02/23 02:23:24;;;;;;;11.65;7.03;;;9.70;74.90;;;;;;1914926;75;21012;-47
2022/02/23 02:25:54;;;;;;;12.00;6.35;;;9.70;75.00;;;;;;1914842;75;21044;-47
2022/02/23 02:28:23;;;;;;;15.10;7.12;;;9.60;75.10;;;;;;1914913;75;21012;-46
2022/02/23 02:30:53;;;;;;;13.03;6.42;;;9.60;75.20;;;;;;1914770;75;21071;-46
2022/02/23 02:33:22;;;;;;;11.25;6.35;;;9.60;75.30;;;;;;1914805;75;21051;-47
2022/02/23 02:35:51;;;;;;;11.50;6.28;;;9.60;75.40;;;;;;1914820;75;21110;-47
2022/02/23 02:38:21;;;;;;;12.53;5.97;;;9.60;75.40;;;;;;1914864;75;21122;-47
2022/02/23 02:40:50;;;;;;;10.53;6.50;;;9.60;75.40;;;;;;1914852;75;21141;-47
2022/02/23 02:43:20;;;;;;;12.68;6.87;;;9.60;75.50;;;;;;1914848;75;21024;-48
2022/02/23 02:45:49;;;;;;;10.48;6.78;;;9.60;75.60;;;;;;1914961;75;21106;-47
2022/02/23 02:48:18;;;;;;;11.08;6.42;;;9.70;75.60;;;;;;1915031;75;21036;-47
2022/02/23 02:50:48;;;;;;;12.43;6.67;;;9.70;75.60;;;;;;1914923;75;21105;-47
2022/02/23 02:53:17;;;;;;;9.40;7.22;;;9.70;75.70;;;;;;1914924;75;21023;-47
2022/02/23 02:55:47;;;;;;;9.25;5.97;;;9.80;75.40;;;;;;1915012;75;21147;-46
2022/02/23 02:58:16;;;;;;;11.28;5.92;;;9.80;75.50;;;;;;1914956;75;21113;-47
2022/02/23 03:00:46;;;;;;;11.15;5.67;;;9.80;75.40;;;;;;1915066;75;21008;-46
2022/02/23 03:03:15;;;;;;;10.10;6.42;;;9.80;75.40;;;;;;1915053;75;21052;-47
2022/02/23 03:05:47;;;;;;;9.80;6.25;;;9.80;75.50;;;;;;1915010;75;21087;-47
2022/02/23 03:08:16;;;;;;;10.50;6.53;;;9.80;75.50;;;;;;1914961;75;21471;-47
2022/02/23 03:10:45;;;;;;;12.68;6.28;;;9.80;75.40;;;;;;1914994;75;21145;-47
2022/02/23 03:13:15;;;;;;;13.38;6.30;;;9.90;75.50;;;;;;1914703;75;21028;-47
2022/02/23 03:15:46;;;;;;;11.45;6.40;;;10.00;75.70;;;;;;1914893;75;21036;-48
2022/02/23 03:18:15;;;;;;;9.63;6.40;;;10.00;75.90;;;;;;1914990;75;21000;-47
2022/02/23 03:20:44;;;;;;;8.88;5.22;;;10.00;76.10;;;;;;1914791;75;21119;-47
2022/02/23 03:23:13;;;;;;;12.73;6.33;;;10.00;76.20;;;;;;1914755;75;21110;-47
2022/02/23 03:25:43;;;;;;;13.68;7.40;;;10.00;76.40;;;;;;1914887;75;21177;-47
2022/02/23 03:28:12;;;;;;;21.25;8.60;;;10.00;76.70;;;;;;1914920;75;21106;-47
2022/02/23 03:30:42;;;;;;;21.85;8.50;;;10.00;76.90;;;;;;1914868;75;21032;-46
2022/02/23 03:33:11;;;;;;;13.32;7.17;;;10.00;76.80;;;;;;1914750;75;21027;-47
2022/02/23 03:35:43;;;;;;;13.62;6.50;;;10.00;76.40;;;;;;1914810;75;21117;-47
2022/02/23 03:38:13;;;;;;;11.18;6.83;;;9.90;76.10;;;;;;1914790;75;21153;-47
2022/02/23 03:40:42;;;;;;;11.70;6.33;;;9.90;76.10;;;;;;1914931;75;21133;-48
2022/02/23 03:43:16;;;;;;;14.10;6.62;;;9.90;76.20;;;;;;1914864;75;21036;-47
2022/02/23 03:45:43;;;;;;;11.70;6.75;;;9.80;76.20;;;;;;1914465;75;21120;-47
2022/02/23 03:48:12;;;;;;;8.13;5.75;;;9.80;76.20;;;;;;1914876;75;21082;-46
2022/02/23 03:50:41;;;;;;;8.85;6.40;;;9.70;76.00;;;;;;1914836;75;21479;-47
2022/02/23 03:53:10;;;;;;;13.62;6.90;;;9.70;76.50;;;;;;1914778;75;21031;-46
2022/02/23 03:55:41;;;;;;;14.75;6.83;;;9.70;77.20;;;;;;1914757;75;21031;-46
2022/02/23 03:58:11;;;;;;;11.88;7.08;;;9.70;76.80;;;;;;1914820;75;21620;-47
2022/02/23 04:00:41;;;;;;;17.85;6.37;;;9.70;76.80;;;;;;1914813;75;21024;-47
2022/02/23 04:03:10;;;;;;;24.02;7.72;;;9.70;77.20;;;;;;1914790;75;21129;-47
2022/02/23 04:05:39;;;;;;;16.17;7.10;;;9.70;77.40;;;;;;1914985;75;21028;-49
2022/02/23 04:08:08;;;;;;;19.10;7.75;;;9.70;77.80;;;;;;1914873;75;21113;-47
2022/02/23 04:10:38;;;;;;;14.23;6.75;;;9.70;77.80;;;;;;1914927;75;21032;-48
2022/02/23 04:13:07;;;;;;;11.28;6.92;;;9.60;77.40;;;;;;1914879;75;21130;-46
2022/02/23 04:15:37;;;;;;;15.25;7.58;;;9.50;77.80;;;;;;1904074;75;21040;-47
2022/02/23 04:18:06;;;;;;;17.52;7.78;;;9.50;78.10;;;;;;1902129;75;21104;-48
2022/02/23 04:20:36;;;;;;;16.55;9.68;;;9.50;78.40;;;;;;1902245;75;21008;-47
2022/02/23 04:23:06;;;;;;;12.85;7.37;;;9.50;78.70;;;;;;1902195;75;21182;-47
2022/02/23 04:25:35;;;;;;;15.20;8.60;;;9.50;78.70;;;;;;1902105;75;21029;-47
2022/02/23 04:28:05;;;;;;;18.60;8.25;;;9.50;78.60;;;;;;1902138;75;21008;-50
2022/02/23 04:30:34;;;;;;;21.57;8.23;;;9.40;78.50;;;;;;1902098;75;21127;-47
2022/02/23 04:33:03;;;;;;;13.13;7.58;;;9.30;78.40;;;;;;1902075;75;21110;-47
2022/02/23 04:35:33;;;;;;;12.88;7.62;;;9.30;78.60;;;;;;1902114;75;21134;-47
2022/02/23 04:38:02;;;;;;;13.15;8.03;;;9.30;78.80;;;;;;1902150;75;21052;-47
2022/02/23 04:40:32;;;;;;;15.48;6.72;;;9.20;79.00;;;;;;1902131;75;21033;-48
2022/02/23 04:43:01;;;;;;;13.85;8.93;;;9.30;79.30;;;;;;1902163;75;21571;-46
2022/02/23 04:45:31;;;;;;;11.22;8.25;;;9.30;79.40;;;;;;1902123;75;21032;-47
2022/02/23 04:48:00;;;;;;;16.93;9.23;;;9.30;79.50;;;;;;1902136;75;21036;-47
2022/02/23 04:50:29;;;;;;;15.63;9.35;;;9.30;79.50;;;;;;1902095;75;21095;-46
2022/02/23 04:52:59;;;;;;;15.28;10.08;;;9.40;79.50;;;;;;1902192;75;21024;-47
2022/02/23 04:55:28;;;;;;;19.17;9.98;;;9.40;79.70;;;;;;1902040;75;21110;-48
2022/02/23 04:57:58;;;;;;;20.80;10.85;;;9.40;79.60;;;;;;1902208;75;21122;-48
2022/02/23 05:00:27;;;;;;;23.75;10.93;;;9.40;79.70;;;;;;1902156;75;21102;-47
2022/02/23 05:02:57;;;;;;;27.48;10.10;;;9.50;80.00;;;;;;1902180;75;21118;-48
2022/02/23 05:05:26;;;;;;;21.00;9.28;;;9.50;80.00;;;;;;1902019;75;21090;-48
2022/02/23 05:07:56;;;;;;;16.93;9.48;;;9.50;80.20;;;;;;1901967;75;21008;-48
2022/02/23 05:10:26;;;;;;;16.12;8.18;;;9.50;80.20;;;;;;1901998;75;21115;-48
2022/02/23 05:12:56;;;;;;;15.72;8.80;;;9.60;80.20;;;;;;1902152;75;21045;-48
2022/02/23 05:15:25;;;;;;;23.00;9.58;;;9.70;80.30;;;;;;1908480;75;21064;-48
2022/02/23 05:17:54;;;;;;;21.12;9.30;;;9.70;80.40;;;;;;1914794;75;21142;-48
2022/02/23 05:20:24;;;;;;;15.90;9.00;;;9.70;81.00;;;;;;1914926;75;21044;-47
2022/02/23 05:22:53;;;;;;;16.97;9.80;;;9.80;80.40;;;;;;1914919;75;21114;-49
2022/02/23 05:25:24;;;;;;;23.42;9.60;;;9.80;80.40;;;;;;1914675;75;21043;-48
2022/02/23 05:27:53;;;;;;;21.68;10.58;;;9.90;80.20;;;;;;1914744;75;21080;-49
2022/02/23 05:30:23;;;;;;;20.97;9.28;;;9.90;79.90;;;;;;1914736;75;21060;-47
2022/02/23 05:32:52;;;;;;;32.35;10.50;;;9.90;79.60;;;;;;1914693;75;21024;-50
2022/02/23 05:35:21;;;;;;;17.25;9.40;;;9.90;79.40;;;;;;1914817;75;21028;-49
2022/02/23 05:37:51;;;;;;;20.25;9.20;;;9.90;79.10;;;;;;1914715;75;21032;-48
2022/02/23 05:40:21;;;;;;;14.98;7.95;;;9.90;79.10;;;;;;1914817;75;21105;-48
2022/02/23 05:42:50;;;;;;;19.42;8.33;;;9.90;79.20;;;;;;1914604;75;21093;-49
2022/02/23 05:45:19;;;;;;;15.03;8.48;;;9.90;79.40;;;;;;1914677;75;21063;-47
2022/02/23 05:47:49;;;;;;;18.32;8.48;;;10.00;79.50;;;;;;1914780;75;21107;-49
2022/02/23 05:50:18;;;;;;;15.98;8.45;;;10.00;79.30;;;;;;1914801;75;21012;-49
2022/02/23 05:52:48;;;;;;;15.70;8.00;;;10.20;79.10;;;;;;1914759;75;21035;-49
2022/02/23 05:55:17;;;;;;;16.87;8.38;;;10.20;78.90;;;;;;1914905;75;21052;-48
2022/02/23 05:57:47;;;;;;;12.40;7.28;;;10.20;78.60;;;;;;1914851;75;21039;-48
2022/02/23 06:00:17;;;;;;;14.93;7.90;;;10.30;78.30;;;;;;1914792;75;21036;-48
2022/02/23 06:02:46;;;;;;;46.75;10.10;;;10.30;78.30;;;;;;1914940;75;21113;-48
2022/02/23 06:05:15;;;;;;;12.40;8.25;;;10.40;78.00;;;;;;1914699;75;21012;-51
2022/02/23 06:07:45;;;;;;;15.23;7.95;;;10.40;77.90;;;;;;1914835;75;21439;-51
2022/02/23 06:10:14;;;;;;;12.13;6.95;;;10.50;77.80;;;;;;1914896;75;21134;-48
2022/02/23 06:12:44;;;;;;;22.27;8.05;;;10.50;77.50;;;;;;1914729;75;21099;-49
2022/02/23 06:15:13;;;;;;;13.98;7.08;;;10.60;77.50;;;;;;1909724;75;21071;-49
2022/02/23 06:17:42;;;;;;;16.07;8.60;;;10.60;77.20;;;;;;1882351;75;21129;-48
2022/02/23 06:20:12;;;;;;;14.87;8.58;;;10.70;77.20;;;;;;1882293;76;21044;-48
2022/02/23 06:22:41;;;;;;;14.60;8.35;;;10.80;77.10;;;;;;1882422;76;21043;-49
2022/02/23 06:25:11;;;;;;;13.30;8.18;;;10.80;77.00;;;;;;1882270;75;21012;-47
2022/02/23 06:27:40;;;;;;;20.15;8.55;;;10.90;76.90;;;;;;1882326;76;21114;-50
2022/02/23 06:30:10;;;;;;;13.60;8.08;;;11.00;76.70;;;;;;1882417;75;21126;-48
2022/02/23 06:32:39;;;;;;;12.65;7.72;;;11.00;76.70;;;;;;1882353;76;21048;-48
2022/02/23 06:35:09;;;;;;;20.10;8.58;;;11.10;76.60;;;;;;1882314;75;21040;-47
2022/02/23 06:37:39;;;;;;;18.87;8.13;;;11.20;76.50;;;;;;1882214;75;21035;-48
2022/02/23 06:40:09;;;;;;;22.17;8.95;;;11.30;76.50;;;;;;1882274;76;21012;-48
2022/02/23 06:42:39;;;;;;;28.98;9.65;;;11.40;76.40;;;;;;1882291;76;21036;-48
2022/02/23 06:45:09;;;;;;;17.05;7.55;;;11.40;76.20;;;;;;1882296;75;21038;-47
2022/02/23 06:47:39;;;;;;;14.03;7.92;;;11.60;76.00;;;;;;1882415;75;21567;-49
2022/02/23 06:50:09;;;;;;;14.18;7.45;;;11.70;76.00;;;;;;1882265;75;21044;-49
2022/02/23 06:52:40;;;;;;;14.63;7.90;;;11.70;75.80;;;;;;1882191;75;21039;-48
2022/02/23 06:55:11;;;;;;;19.73;8.13;;;11.80;75.60;;;;;;1882337;75;21016;-48
2022/02/23 06:57:46;;;;;;;17.15;8.05;;;11.90;75.60;;;;;;1882318;76;21016;-48
2022/02/23 07:00:13;;;;;;;15.30;8.30;;;12.00;75.40;;;;;;1881135;75;21043;-48
2022/02/23 07:02:43;;;;;;;13.00;7.10;;;12.10;75.20;;;;;;1882277;75;21056;-48
2022/02/23 07:05:13;;;;;;;14.18;7.85;;;12.20;74.80;;;;;;1882415;76;21036;-48
2022/02/23 07:07:42;;;;;;;17.65;8.03;;;12.30;74.90;;;;;;1882325;75;21012;-49
2022/02/23 07:10:28;;;;;;;29.02;10.85;;;12.40;74.50;;;;;;1882360;75;21126;-49
2022/02/23 07:12:58;;;;;;;21.37;12.60;;;12.50;74.30;;;;;;1882181;75;21048;-47
2022/02/23 07:15:28;;;;;;;21.00;12.50;;;12.60;73.80;;;;;;1882696;75;21039;-48
2022/02/23 07:17:58;;;;;;;28.17;11.03;;;12.70;74.20;;;;;;1902292;75;21549;-47
2022/02/23 07:20:27;;;;;;;16.95;10.40;;;12.70;73.90;;;;;;1902157;75;21028;-48
2022/02/23 07:22:57;;;;;;;18.20;10.55;;;12.70;73.90;;;;;;1902231;75;21048;-49
2022/02/23 07:25:26;;;;;;;14.78;9.53;;;12.70;74.20;;;;;;1902188;75;21032;-48
2022/02/23 07:27:55;;;;;;;20.37;10.55;;;12.70;74.50;;;;;;1902270;75;21027;-51
2022/02/23 07:30:25;;;;;;;21.42;8.75;;;12.70;74.60;;;;;;1902222;75;21072;-48
2022/02/23 07:32:57;;;;;;;17.73;8.45;;;12.70;74.60;;;;;;1902083;75;21092;-48
2022/02/23 07:35:27;;;;;;;22.27;9.43;;;12.70;73.90;;;;;;1902233;75;21008;-48
2022/02/23 07:38:04;;;;;;;14.23;8.65;;;12.70;73.90;;;;;;1902086;75;21024;-48
2022/02/23 07:40:29;;;;;;;21.12;9.58;;;12.70;73.80;;;;;;1901496;75;21123;-48
2022/02/23 07:43:04;;;;;;;19.75;9.35;;;12.70;74.10;;;;;;1902186;75;21028;-48
2022/02/23 07:45:30;;;;;;;17.73;8.65;;;12.80;74.30;;;;;;1900980;75;21106;-49
2022/02/23 07:48:02;;;;;;;19.90;9.43;;;12.80;74.10;;;;;;1901605;75;21013;-50
2022/02/23 07:50:32;;;;;;;10.45;6.83;;;12.90;74.30;;;;;;1902119;75;21130;-48
2022/02/23 07:53:03;;;;;;;20.08;8.88;;;12.90;74.10;;;;;;1901860;75;21122;-48
2022/02/23 07:55:32;;;;;;;16.80;7.53;;;13.00;74.10;;;;;;1902113;75;21032;-48
2022/02/23 07:58:03;;;;;;;15.83;8.93;;;13.00;74.00;;;;;;1902159;75;21008;-48
2022/02/23 08:00:32;;;;;;;17.50;8.75;;;13.00;73.90;;;;;;1902139;75;21102;-48
2022/02/23 08:03:01;;;;;;;15.38;7.78;;;13.10;73.80;;;;;;1902168;75;21036;-48
2022/02/23 08:05:31;;;;;;;10.20;7.70;;;13.10;73.40;;;;;;1902115;75;21134;-50
2022/02/23 08:08:00;;;;;;;13.88;7.47;;;13.20;73.30;;;;;;1902127;75;21032;-48
2022/02/23 08:10:30;;;;;;;11.57;6.83;;;13.20;73.50;;;;;;1902316;75;21122;-48
2022/02/23 08:12:59;;;;;;;15.10;7.67;;;13.20;73.50;;;;;;1902097;75;21013;-47
2022/02/23 08:21:05;;;;;;;16.27;7.00;;;13.40;73.40;;;;;;1902357;75;21061;-48
2022/02/23 08:23:34;;;;;;;13.62;7.60;;;13.40;73.20;;;;;;1902356;75;21004;-49
2022/02/23 08:26:03;;;;;;;21.00;9.43;;;13.50;73.20;;;;;;1902173;75;21114;-48
2022/02/23 08:28:33;;;;;;;16.10;5.97;;;13.50;72.90;;;;;;1902258;75;21028;-49
2022/02/23 08:31:03;;;;;;;14.20;7.15;;;13.60;73.00;;;;;;1902305;75;21016;-48
2022/02/23 08:33:33;;;;;;;10.00;6.95;;;13.70;72.90;;;;;;1902161;75;21033;-50
2022/02/23 08:36:02;;;;;;;14.78;6.78;;;13.70;72.70;;;;;;1902228;75;21032;-48
2022/02/23 08:38:32;;;;;;;12.35;7.42;;;13.70;72.50;;;;;;1902167;75;21056;-47
2022/02/23 08:41:01;;;;;;;11.97;6.78;;;13.70;71.80;;;;;;1902298;75;21008;-48
2022/02/23 08:43:31;;;;;;;11.50;6.53;;;13.80;71.60;;;;;;1902244;75;21106;-47
2022/02/23 08:46:00;;;;;;;10.90;6.83;;;13.80;71.70;;;;;;1902167;75;21130;-48
2022/02/23 08:48:30;;;;;;;7.70;5.97;;;13.90;71.20;;;;;;1902212;75;21106;-48
2022/02/23 08:50:59;;;;;;;12.30;6.70;;;13.90;71.10;;;;;;1902220;75;21051;-48
2022/02/23 08:53:29;;;;;;;12.70;5.97;;;14.00;70.70;;;;;;1902124;75;21060;-47
2022/02/23 08:55:58;;;;;;;13.60;7.12;;;14.00;70.70;;;;;;1902169;75;21037;-47
2022/02/23 08:58:28;;;;;;;16.80;7.47;;;14.00;70.80;;;;;;1902130;75;21134;-48
2022/02/23 09:00:57;;;;;;;17.10;8.08;;;14.10;70.80;;;;;;1902057;75;21118;-47
2022/02/23 09:03:27;;;;;;;12.05;6.95;;;14.10;71.00;;;;;;1902184;75;21053;-49
2022/02/23 09:05:56;;;;;;;15.75;8.45;;;14.20;71.00;;;;;;1902133;75;21114;-48
2022/02/23 09:08:25;;;;;;;12.00;7.45;;;14.20;70.90;;;;;;1902152;75;21083;-47
2022/02/23 09:10:54;;;;;;;11.55;6.83;;;14.30;71.00;;;;;;1902171;75;21080;-48
2022/02/23 09:13:24;;;;;;;16.07;6.75;;;14.30;70.60;;;;;;1902010;75;21036;-49
2022/02/23 09:15:53;;;;;;;16.27;7.37;;;14.40;70.60;;;;;;1902147;75;21040;-48
2022/02/23 09:18:23;;;;;;;12.63;7.72;;;14.40;70.80;;;;;;1902204;75;21060;-47
2022/02/23 09:20:53;;;;;;;15.38;8.05;;;14.40;70.70;;;;;;1902216;75;21126;-48
2022/02/23 09:23:22;;;;;;;15.32;7.35;;;14.50;70.20;;;;;;1902194;75;21115;-49
2022/02/23 09:25:53;;;;;;;25.70;8.90;;;14.50;70.50;;;;;;1902207;75;21122;-48
2022/02/23 09:28:22;;;;;;;21.73;8.75;;;14.60;70.30;;;;;;1902151;75;21578;-48
2022/02/23 09:30:52;;;;;;;10.72;7.53;;;14.60;70.10;;;;;;1902271;75;21036;-48
2022/02/23 09:33:21;;;;;;;12.23;8.05;;;14.70;69.80;;;;;;1902163;75;21032;-47
2022/02/23 09:35:51;;;;;;;12.00;7.37;;;14.80;69.50;;;;;;1902232;75;21122;-48
2022/02/23 09:38:20;;;;;;;9.00;6.12;;;14.80;68.90;;;;;;1902231;75;21033;-48
2022/02/23 09:40:56;;;;;;;13.22;7.55;;;14.80;68.90;;;;;;1902172;75;21036;-48
2022/02/23 09:43:25;;;;;;;12.25;7.03;;;14.90;68.30;;;;;;1902234;75;21103;-47
2022/02/23 09:45:56;;;;;;;16.95;8.45;;;14.90;68.80;;;;;;1902310;75;21033;-47
2022/02/23 09:48:28;;;;;;;14.10;7.20;;;14.90;68.80;;;;;;1902327;75;21157;-49
2022/02/23 09:50:59;;;;;;;13.58;7.20;;;15.00;68.90;;;;;;1902228;75;21131;-47
2022/02/23 09:53:28;;;;;;;13.55;7.83;;;15.00;69.30;;;;;;1902232;75;21114;-48
2022/02/23 09:55:59;;;;;;;12.43;7.58;;;15.00;69.10;;;;;;1902210;75;21137;-51
2022/02/23 09:58:28;;;;;;;16.95;11.20;;;15.10;69.60;;;;;;1902239;75;21576;-49
2022/02/23 10:00:59;;;;;;;15.58;8.28;;;15.10;68.60;;;;;;1902192;75;21122;-47
2022/02/23 10:03:28;;;;;;;20.17;8.23;;;15.20;68.40;;;;;;1902204;75;21036;-48
2022/02/23 10:05:57;;;;;;;12.18;7.20;;;15.20;68.20;;;;;;1902189;75;21126;-48
2022/02/23 10:08:37;;;;;;;19.90;8.78;;;15.30;68.40;;;;;;1902289;75;21481;-48
2022/02/23 10:11:02;;;;;;;20.20;7.25;;;15.30;68.50;;;;;;1901066;75;21029;-47
2022/02/23 10:13:32;;;;;;;14.23;8.25;;;15.40;68.70;;;;;;1902256;75;21106;-48
2022/02/23 10:16:01;;;;;;;12.45;7.62;;;15.40;68.20;;;;;;1902219;75;21037;-48
2022/02/23 10:18:32;;;;;;;14.87;8.05;;;15.40;68.60;;;;;;1908005;75;21075;-48
2022/02/23 10:21:01;;;;;;;12.60;7.00;;;15.50;68.50;;;;;;1914971;75;21039;-48
2022/02/23 10:23:30;;;;;;;10.25;6.37;;;15.50;68.70;;;;;;1915014;75;21048;-47
2022/02/23 10:26:12;;;;;;;15.25;7.62;;;15.50;68.80;;;;;;1914935;75;21105;-48
2022/02/23 10:28:37;;;;;;;12.82;7.28;;;15.50;68.70;;;;;;1912959;75;21133;-48
2022/02/23 10:31:09;;;;;;;15.78;7.75;;;15.50;68.80;;;;;;1915025;75;21587;-47
2022/02/23 10:33:41;;;;;;;13.48;9.00;;;15.50;68.30;;;;;;1913756;74;21548;-48
2022/02/23 10:36:15;;;;;;;10.25;6.08;;;15.50;68.20;;;;;;1914913;75;21090;-48
2022/02/23 10:38:50;;;;;;;13.72;8.83;;;15.50;67.80;;;;;;1914791;75;21038;-48
2022/02/23 10:41:30;;;;;;;15.28;8.18;;;15.40;68.20;;;;;;1915022;75;21048;-47
2022/02/23 10:44:00;;;;;;;11.40;6.28;;;15.40;68.00;;;;;;1914992;75;21052;-48
2022/02/23 10:46:29;;;;;;;10.28;7.40;;;15.40;67.50;;;;;;1914937;75;21025;-49
2022/02/23 10:49:01;;;;;;;15.93;8.48;;;15.30;67.90;;;;;;1914997;75;21008;-49
2022/02/23 10:51:37;;;;;;;12.98;9.35;;;15.30;68.20;;;;;;1915041;75;21004;-48
2022/02/23 10:54:14;;;;;;;10.00;6.75;;;15.20;68.20;;;;;;1914859;75;21048;-47
2022/02/23 10:56:45;;;;;;;14.80;8.08;;;15.20;68.40;;;;;;1914935;75;21109;-48
2022/02/23 10:59:24;;;;;;;11.38;7.97;;;15.20;68.50;;;;;;1914929;75;21565;-48
2022/02/23 11:01:52;;;;;;;15.58;7.92;;;15.20;68.50;;;;;;1913618;75;21846;-48
2022/02/23 11:04:21;;;;;;;17.60;7.80;;;15.20;68.70;;;;;;1914823;75;21109;-48
2022/02/23 11:06:52;;;;;;;12.28;8.28;;;15.20;68.50;;;;;;1914893;75;21095;-48
2022/02/23 11:09:22;;;;;;;14.60;7.70;;;15.20;68.70;;;;;;1914936;75;21189;-48
2022/02/23 11:11:52;;;;;;;15.78;8.15;;;15.20;69.00;;;;;;1914780;75;21071;-47
2022/02/23 11:14:23;;;;;;;10.28;7.08;;;15.30;69.10;;;;;;1914887;75;21028;-47
2022/02/23 11:16:53;;;;;;;30.20;11.30;;;15.30;69.00;;;;;;1914809;75;21004;-48
2022/02/23 11:19:24;;;;;;;12.23;7.15;;;15.20;69.10;;;;;;1907284;75;21040;-50
2022/02/23 11:21:55;;;;;;;18.42;8.23;;;15.20;69.50;;;;;;1902327;75;21460;-48
2022/02/23 11:24:26;;;;;;;11.40;7.33;;;15.30;69.30;;;;;;1902171;75;21040;-49
2022/02/23 11:26:58;;;;;;;12.80;7.62;;;15.30;69.30;;;;;;1902243;75;21107;-47
2022/02/23 11:29:32;;;;;;;11.15;7.03;;;15.40;69.40;;;;;;1902152;75;21202;-48
2022/02/23 11:32:05;;;;;;;12.13;6.75;;;15.40;69.20;;;;;;1902000;75;21131;-48
2022/02/23 11:34:37;;;;;;;11.05;8.15;;;15.40;69.00;;;;;;1902139;75;21032;-49
2022/02/23 11:37:11;;;;;;;13.30;7.40;;;15.30;69.20;;;;;;1902281;75;21338;-48
2022/02/23 11:39:40;;;;;;;15.48;7.37;;;15.30;69.20;;;;;;1902404;75;21106;-48
2022/02/23 11:42:12;;;;;;;13.00;7.72;;;15.20;69.30;;;;;;1902163;75;21036;-48
2022/02/23 11:44:49;;;;;;;12.43;7.40;;;15.20;69.40;;;;;;1900945;75;21056;-48
2022/02/23 11:47:14;;;;;;;12.50;7.67;;;15.20;69.50;;;;;;1901347;75;21107;-48
2022/02/23 11:49:52;;;;;;;11.80;7.30;;;15.10;69.80;;;;;;1902174;75;21029;-47
2022/02/23 11:52:23;;;;;;;13.08;7.37;;;15.10;70.00;;;;;;1902249;75;21442;-47
2022/02/23 11:55:05;;;;;;;16.15;7.62;;;15.10;70.40;;;;;;1902279;75;21111;-48
2022/02/23 11:57:52;;;;;;;12.03;7.33;;;15.10;70.40;;;;;;1892569;75;21038;-48
2022/02/23 12:00:27;;;;;;;12.00;7.75;;;15.10;70.30;;;;;;1902274;75;21057;-49
2022/02/23 12:03:11;;;;;;;11.50;7.80;;;15.10;70.20;;;;;;1899639;75;21048;-49
2022/02/23 12:05:46;;;;;;;10.55;6.90;;;15.10;70.30;;;;;;1902169;75;21122;-47
2022/02/23 12:08:37;;;;;;;10.78;7.35;;;15.10;70.10;;;;;;1902336;75;21122;-49
2022/02/23 12:11:21;;;;;;;17.45;8.15;;;15.20;70.30;;;;;;1902235;75;21552;-47
2022/02/23 12:13:58;;;;;;;11.00;7.35;;;15.10;70.10;;;;;;1902169;75;21028;-48
2022/02/23 12:16:33;;;;;;;25.75;9.00;;;15.10;70.10;;;;;;1902281;75;21106;-49
2022/02/23 12:19:07;;;;;;;11.68;7.40;;;15.10;70.00;;;;;;1900807;75;21080;-48
2022/02/23 12:21:38;;;;;;;;;;;15.10;70.00;;;;;;1905083;75;21107;-48
2022/02/23 12:24:09;;;;;;;13.03;7.87;;;15.10;70.40;;;;;;1902284;75;20162;-47
2022/02/23 12:26:38;;;;;;;11.65;7.83;;;15.10;70.10;;;;;;1902145;75;21032;-47
2022/02/23 12:29:10;;;;;;;12.88;7.20;;;15.10;70.20;;;;;;1902238;75;21013;-48
2022/02/23 12:31:44;;;;;;;15.78;7.97;;;15.10;70.20;;;;;;1902266;75;21060;-48
2022/02/23 12:34:17;;;;;;;15.00;8.38;;;15.10;70.50;;;;;;1902077;75;21028;-48
2022/02/23 12:36:52;;;;;;;11.30;7.05;;;15.10;70.50;;;;;;1902296;75;21076;-48
2022/02/23 12:39:26;;;;;;;11.45;7.53;;;15.20;70.40;;;;;;1902297;75;21111;-47
2022/02/23 12:42:01;;;;;;;66.02;12.73;;;15.20;70.50;;;;;;1901873;75;21526;-48
2022/02/23 12:44:35;;;;;;;21.23;9.93;;;15.20;70.50;;;;;;1902092;75;21004;-49
2022/02/23 12:47:06;;;;;;;14.83;7.95;;;15.30;70.40;;;;;;1902414;75;21107;-48
2022/02/23 12:49:36;;;;;;;11.22;7.30;;;15.30;70.40;;;;;;1902137;75;21008;-49
2022/02/23 12:52:07;;;;;;;13.32;8.15;;;15.30;70.20;;;;;;1902059;75;21009;-47
2022/02/23 12:54:37;;;;;;;14.75;7.40;;;15.20;70.10;;;;;;1902094;75;21008;-48
2022/02/23 12:57:08;;;;;;;12.60;6.70;;;15.30;70.20;;;;;;1902226;75;21052;-48
2022/02/23 12:59:39;;;;;;;13.58;7.20;;;15.30;70.40;;;;;;1902210;75;21190;-47
2022/02/23 13:02:09;;;;;;;16.37;8.75;;;15.20;70.40;;;;;;1902374;75;21053;-49